Impacts TAF Board INFO
FOR SITUATIONAL AWARENESS. NOT TO BE USED FOR FLIGHT PLANNING PURPOSES.
IDs:

KDTW - Detroit Metro/Wayne, MI, US

Issued at 1720 UTC 14 Aug 2018
Updated at 2204 UTC 14 Aug 2018
Potential Impact None Slight Moderate High
Time<<15/23Z 16/00Z 16/01Z 16/02Z 16/03Z 16/04Z 16/05Z 16/06Z 16/07Z 16/08Z 16/09Z 16/10Z 16/11Z
Type PRVL
VIS >6
CIG 200
Cover BKN
FltCat VFR
WX --
WDir 220
WSpd 8
WGst --

Raw TAF
KDTW 141720Z 1418/1524 26009KT P6SM FEW060
  FM150200 VRB04KT P6SM BKN250
  FM151500 22008KT P6SM SCT045 BKN200


METAR Board
Radar Display
Forecast Discussion

FOR SITUATIONAL AWARENESS. NOT TO BE USED FOR FLIGHT PLANNING PURPOSES.